createdAt,value
2023-04-03T00:01:22.652Z,28.20
2023-04-03T00:03:51.444Z,28.30
2023-04-03T00:06:20.399Z,28.30
2023-04-03T00:08:48.472Z,28.30
2023-04-03T00:11:18.648Z,28.40
2023-04-03T00:13:46.934Z,28.40
2023-04-03T00:16:15.808Z,28.50
2023-04-03T00:18:45.735Z,28.50
2023-04-03T00:21:16.053Z,28.50
2023-04-03T00:23:44.709Z,28.50
2023-04-03T00:26:13.034Z,28.60
2023-04-03T00:28:41.636Z,28.60
2023-04-03T00:31:10.161Z,28.60
2023-04-03T00:33:38.215Z,28.70
2023-04-03T00:36:14.004Z,28.70
2023-04-03T00:38:44.254Z,28.70
2023-04-03T00:41:12.624Z,28.70
2023-04-03T00:43:41.056Z,28.80
2023-04-03T00:46:09.383Z,28.90
2023-04-03T00:48:42.319Z,28.90
2023-04-03T00:51:18.326Z,29.00
2023-04-03T00:54:04.179Z,29.10
2023-04-03T00:56:52.005Z,29.10
2023-04-03T00:59:39.588Z,29.20
2023-04-03T01:02:08.408Z,29.20
2023-04-03T01:04:52.829Z,29.30
2023-04-03T01:11:00.534Z,29.40
2023-04-03T01:13:46.268Z,29.50
2023-04-03T01:16:14.645Z,29.50
2023-04-03T01:18:44.916Z,29.60
2023-04-03T01:21:28.841Z,29.60
2023-04-03T01:24:23.022Z,29.70
2023-04-03T01:26:51.713Z,29.70
2023-04-03T01:29:21.416Z,29.80
2023-04-03T01:31:52.858Z,29.80
2023-04-03T01:34:22.222Z,29.90
2023-04-03T01:36:50.474Z,29.90
2023-04-03T01:39:19.727Z,29.90
2023-04-03T01:42:03.293Z,30.00
2023-04-03T01:46:24.266Z,30.10
2023-04-03T01:47:40.445Z,30.20
2023-04-03T01:50:11.752Z,30.30
2023-04-03T01:52:40.064Z,30.30
2023-04-03T01:55:08.762Z,30.40
2023-04-03T01:57:36.801Z,30.50
2023-04-03T02:00:05.740Z,30.60
2023-04-03T02:02:34.900Z,30.60
2023-04-03T02:05:06.477Z,30.70
2023-04-03T02:07:34.834Z,30.80
2023-04-03T02:10:05.003Z,30.80
2023-04-03T02:12:33.589Z,30.90
2023-04-03T02:15:03.121Z,31.00
2023-04-03T02:17:32.582Z,31.10
2023-04-03T02:20:22.904Z,31.10
2023-04-03T02:22:51.074Z,31.20
2023-04-03T02:25:19.538Z,31.30
2023-04-03T02:27:47.662Z,31.40
2023-04-03T02:30:16.060Z,31.40
2023-04-03T02:32:46.432Z,31.50
2023-04-03T02:35:15.707Z,31.50
2023-04-03T02:37:50.201Z,31.50
2023-04-03T02:40:19.779Z,31.60
2023-04-03T02:42:48.100Z,31.60
2023-04-03T02:45:16.217Z,31.70
2023-04-03T02:47:44.400Z,31.80
2023-04-03T02:50:14.218Z,31.80
2023-04-03T02:52:42.579Z,31.90
2023-04-03T02:55:15.007Z,32.00
2023-04-03T02:57:43.967Z,32.00
2023-04-03T03:00:12.409Z,32.10
2023-04-03T03:02:41.078Z,32.10
2023-04-03T03:05:09.858Z,32.20
2023-04-03T03:07:38.269Z,32.20
2023-04-03T03:10:06.913Z,32.40
2023-04-03T03:12:35.032Z,32.40
2023-04-03T03:15:03.065Z,32.40
2023-04-03T03:17:31.402Z,32.50
2023-04-03T03:19:59.564Z,32.60
2023-04-03T03:22:30.108Z,32.60
2023-04-03T03:25:03.448Z,32.70
2023-04-03T03:27:34.469Z,32.80
2023-04-03T03:30:03.436Z,32.90
2023-04-03T03:32:32.568Z,33.00
2023-04-03T03:35:11.135Z,33.00
2023-04-03T03:37:42.364Z,33.10
2023-04-03T03:40:13.265Z,33.20
2023-04-03T03:42:41.702Z,33.20
2023-04-03T03:45:12.726Z,33.30
2023-04-03T03:47:41.380Z,33.30
2023-04-03T03:50:13.110Z,33.40
2023-04-03T03:52:42.159Z,33.40
2023-04-03T03:55:10.531Z,33.40
2023-04-03T03:57:38.878Z,33.50
2023-04-03T04:00:08.548Z,33.60
2023-04-03T04:02:36.968Z,33.70
2023-04-03T04:05:16.894Z,33.70
2023-04-03T04:07:44.795Z,33.80
2023-04-03T04:10:16.757Z,33.80
2023-04-03T04:12:45.579Z,33.80
2023-04-03T04:15:13.704Z,33.80
2023-04-03T04:17:42.630Z,33.80
2023-04-03T04:20:11.998Z,33.80
2023-04-03T04:22:41.253Z,33.80
2023-04-03T04:25:09.845Z,33.80
2023-04-03T04:27:40.751Z,33.90
2023-04-03T04:30:13.560Z,33.90
2023-04-03T04:32:42.166Z,34.00
2023-04-03T04:35:11.462Z,34.10
2023-04-03T04:37:45.991Z,34.20
2023-04-03T04:40:14.183Z,34.30
2023-04-03T04:42:43.167Z,34.40
2023-04-03T04:45:11.700Z,34.50
2023-04-03T04:47:39.888Z,34.50
2023-04-03T04:50:13.341Z,34.50
2023-04-03T04:52:42.266Z,34.50
2023-04-03T04:55:20.073Z,34.50
2023-04-03T04:57:48.188Z,34.50
2023-04-03T05:00:17.018Z,34.50
2023-04-03T05:02:45.813Z,34.60
2023-04-03T05:05:14.062Z,34.70
2023-04-03T05:07:42.378Z,34.70
2023-04-03T05:10:12.484Z,34.80
2023-04-03T05:12:43.164Z,34.70
2023-04-03T05:15:11.755Z,34.80
2023-04-03T05:17:42.313Z,34.80
2023-04-03T05:20:12.398Z,34.80
2023-04-03T05:22:43.800Z,34.90
2023-04-03T05:25:12.194Z,35.00
2023-04-03T05:27:41.763Z,35.00
2023-04-03T05:30:12.197Z,35.10
2023-04-03T05:32:40.347Z,35.20
2023-04-03T05:35:09.635Z,35.20
2023-04-03T05:37:38.622Z,35.30
2023-04-03T05:40:07.575Z,35.30
2023-04-03T05:42:36.020Z,35.30
2023-04-03T05:45:04.372Z,35.30
2023-04-03T05:47:32.513Z,35.30
2023-04-03T05:50:03.117Z,35.40
2023-04-03T05:52:45.275Z,35.40
2023-04-03T05:55:13.582Z,35.50
2023-04-03T05:57:41.736Z,35.50
2023-04-03T06:00:13.946Z,35.60
2023-04-03T06:02:51.994Z,35.70
2023-04-03T06:05:20.254Z,35.70
2023-04-03T06:07:54.088Z,35.80
2023-04-03T06:10:22.359Z,35.80
2023-04-03T06:12:50.542Z,35.80
2023-04-03T06:15:19.654Z,35.80
2023-04-03T06:17:48.401Z,35.90
2023-04-03T06:20:17.717Z,35.80
2023-04-03T06:22:46.079Z,35.90
2023-04-03T06:25:14.408Z,35.90
2023-04-03T06:27:43.230Z,35.90
2023-04-03T06:30:12.268Z,36.00
2023-04-03T06:32:51.137Z,36.00
2023-04-03T06:35:20.745Z,36.10
2023-04-03T06:37:52.075Z,36.10
2023-04-03T06:40:26.438Z,36.20
2023-04-03T06:42:55.179Z,36.30
2023-04-03T06:45:23.573Z,36.20
2023-04-03T06:47:51.719Z,36.30
2023-04-03T06:50:20.127Z,36.40
2023-04-03T06:52:48.372Z,36.30
2023-04-03T06:55:16.825Z,36.40
2023-04-03T06:57:46.204Z,36.40
2023-04-03T07:00:19.317Z,36.50
2023-04-03T07:02:48.216Z,36.50
2023-04-03T07:05:19.514Z,36.60
2023-04-03T07:07:50.947Z,36.60
2023-04-03T07:10:19.487Z,36.60
2023-04-03T07:12:47.693Z,36.60
2023-04-03T07:16:20.684Z,36.60
2023-04-03T07:19:42.924Z,36.60
2023-04-03T07:24:52.979Z,36.70
2023-04-03T07:27:24.106Z,36.70
2023-04-03T07:29:53.969Z,36.70
2023-04-03T07:32:23.713Z,36.70
2023-04-03T07:35:13.498Z,36.70
2023-04-03T07:37:51.547Z,36.70
2023-04-03T07:40:20.851Z,36.70
2023-04-03T07:42:49.071Z,36.70
2023-04-03T07:45:18.630Z,36.70
2023-04-03T07:47:47.042Z,36.70
2023-04-03T07:50:15.862Z,36.70
2023-04-03T07:52:44.443Z,36.70
2023-04-03T07:55:18.764Z,36.70
2023-04-03T07:57:46.855Z,36.70
2023-04-03T08:00:16.384Z,36.60
2023-04-03T08:02:46.049Z,36.50
2023-04-03T08:05:13.818Z,36.40
2023-04-03T08:07:44.549Z,36.20
2023-04-03T08:10:12.776Z,36.10
2023-04-03T08:12:41.198Z,36.00
2023-04-03T08:15:09.800Z,35.90
2023-04-03T08:17:38.735Z,35.80
2023-04-03T08:20:08.109Z,35.80
2023-04-03T08:22:36.325Z,35.60
2023-04-03T08:25:04.565Z,35.50
2023-04-03T08:27:40.390Z,35.30
2023-04-03T08:30:10.238Z,35.00
2023-04-03T08:32:39.248Z,34.60
2023-04-03T08:35:08.078Z,34.10
2023-04-03T08:37:48.973Z,33.70
2023-04-03T08:40:19.008Z,33.30
2023-04-03T08:42:59.419Z,33.00
2023-04-03T08:45:34.260Z,32.60
2023-04-03T08:48:12.797Z,32.20
2023-04-03T08:50:52.879Z,31.80
2023-04-03T08:53:31.314Z,31.40
2023-04-03T08:56:02.430Z,31.00
2023-04-03T08:58:39.594Z,30.70
2023-04-03T09:01:29.212Z,30.50
2023-04-03T09:04:02.524Z,30.30
2023-04-03T09:06:36.373Z,30.10
2023-04-03T09:09:28.627Z,29.90
2023-04-03T09:12:18.329Z,29.70
2023-04-03T09:14:57.174Z,29.50
2023-04-03T09:17:48.493Z,29.40
2023-04-03T09:20:38.672Z,29.30
2023-04-03T09:26:10.387Z,29.10
2023-04-03T09:28:50.533Z,29.10
2023-04-03T09:31:24.187Z,29.10
2023-04-03T09:33:59.881Z,29.10
2023-04-03T09:36:47.350Z,29.10
2023-04-03T09:39:50.990Z,29.20
2023-04-03T09:42:25.377Z,29.30
2023-04-03T09:45:07.923Z,29.50
2023-04-03T09:47:43.134Z,29.50
2023-04-03T09:50:19.429Z,29.50
2023-04-03T09:52:55.814Z,29.60
2023-04-03T09:55:45.520Z,29.60
2023-04-03T09:58:42.810Z,29.80
2023-04-03T10:01:44.441Z,30.00
2023-04-03T10:04:12.526Z,30.10
2023-04-03T10:06:48.197Z,30.20
2023-04-03T10:09:31.241Z,30.40
2023-04-03T10:12:08.523Z,30.50
2023-04-03T10:14:40.089Z,30.60
2023-04-03T10:17:30.055Z,30.80
2023-04-03T10:20:17.415Z,30.90
2023-04-03T10:23:36.457Z,31.00
2023-04-03T10:26:34.863Z,31.10
2023-04-03T10:29:42.606Z,31.30
2023-04-03T10:32:46.013Z,31.30
2023-04-03T10:35:38.395Z,31.40
2023-04-03T10:38:36.542Z,31.50
2023-04-03T10:41:31.533Z,31.60
2023-04-03T10:44:13.561Z,31.60
2023-04-03T10:47:12.152Z,31.60
2023-04-03T10:49:50.048Z,31.70
2023-04-03T10:52:42.588Z,31.70
2023-04-03T10:55:39.372Z,31.60
2023-04-03T10:58:19.591Z,31.50
2023-04-03T11:00:52.588Z,31.50
2023-04-03T11:03:36.204Z,31.40
2023-04-03T11:06:09.605Z,31.30
2023-04-03T11:09:00.335Z,31.30
2023-04-03T11:11:34.582Z,31.20
2023-04-03T11:14:33.261Z,31.20
2023-04-03T11:17:15.180Z,31.10
2023-04-03T11:19:49.106Z,31.10
2023-04-03T11:22:31.816Z,31.00
2023-04-03T11:25:13.465Z,31.00
2023-04-03T11:27:58.991Z,31.00
2023-04-03T11:30:43.263Z,31.00
2023-04-03T11:33:14.404Z,31.00
2023-04-03T11:35:48.176Z,31.00
2023-04-03T11:38:32.188Z,31.00
2023-04-03T11:41:01.385Z,31.00
2023-04-03T11:43:34.136Z,30.90
2023-04-03T11:46:08.807Z,30.90
2023-04-03T11:48:37.105Z,30.90
2023-04-03T11:51:31.645Z,30.90
2023-04-03T11:54:44.445Z,30.90
2023-04-03T11:57:47.341Z,30.90
2023-04-03T12:00:54.781Z,30.90
2023-04-03T12:03:25.991Z,30.90
2023-04-03T12:05:55.239Z,30.90
2023-04-03T12:08:35.545Z,30.80
2023-04-03T12:11:13.995Z,30.80
2023-04-03T12:14:06.204Z,30.80
2023-04-03T12:16:41.105Z,30.80
2023-04-03T12:19:44.974Z,30.80
2023-04-03T12:22:17.089Z,30.80
2023-04-03T12:24:49.639Z,30.80
2023-04-03T12:27:39.761Z,30.80
2023-04-03T12:30:23.266Z,30.70
2023-04-03T12:33:18.824Z,30.70
2023-04-03T12:36:09.970Z,30.70
2023-04-03T12:38:56.894Z,30.70
2023-04-03T12:41:57.850Z,30.60
2023-04-03T12:44:44.091Z,30.60
2023-04-03T12:47:35.022Z,30.60
2023-04-03T12:50:05.338Z,30.60
2023-04-03T12:52:43.059Z,30.50
2023-04-03T12:55:22.348Z,30.50
2023-04-03T12:57:50.629Z,30.50
2023-04-03T13:00:28.182Z,30.60
2023-04-03T13:02:56.996Z,30.50
2023-04-03T13:05:26.043Z,30.60
2023-04-03T13:08:03.128Z,30.50
2023-04-03T13:10:32.740Z,30.50
2023-04-03T13:13:11.248Z,30.50
2023-04-03T13:15:50.388Z,30.50
2023-04-03T13:18:35.005Z,30.50
2023-04-03T13:21:14.551Z,30.50
2023-04-03T13:23:47.325Z,30.50
2023-04-03T13:26:18.588Z,30.50
2023-04-03T13:28:48.804Z,30.50
2023-04-03T13:31:21.090Z,30.40
2023-04-03T13:34:08.391Z,30.40
2023-04-03T13:36:39.874Z,30.40
2023-04-03T13:39:17.088Z,30.40
2023-04-03T13:41:47.763Z,30.40
2023-04-03T13:44:24.847Z,30.40
2023-04-03T13:46:58.174Z,30.40
2023-04-03T13:49:34.407Z,30.40
2023-04-03T13:52:08.049Z,30.40
2023-04-03T13:54:39.429Z,30.40
2023-04-03T13:57:18.144Z,30.30
2023-04-03T13:59:47.955Z,30.30
2023-04-03T14:02:20.511Z,30.30
2023-04-03T14:04:54.499Z,30.30
2023-04-03T14:07:22.658Z,30.20
2023-04-03T14:09:51.184Z,30.20
2023-04-03T14:12:35.706Z,30.20
2023-04-03T14:15:09.443Z,30.10
2023-04-03T14:17:38.305Z,30.20
2023-04-03T14:20:07.890Z,30.20
2023-04-03T14:22:36.062Z,30.20
2023-04-03T14:25:04.555Z,30.20
2023-04-03T14:27:41.666Z,30.20
2023-04-03T14:30:17.976Z,30.20
2023-04-03T14:32:47.084Z,30.20
2023-04-03T14:35:16.521Z,30.30
2023-04-03T14:37:45.263Z,30.30
2023-04-03T14:40:23.593Z,30.30
2023-04-03T14:42:53.554Z,30.30
2023-04-03T14:45:21.808Z,30.30
2023-04-03T14:47:52.973Z,30.40
2023-04-03T14:50:24.191Z,30.40
2023-04-03T14:52:55.259Z,30.40
2023-04-03T14:55:25.765Z,30.40
2023-04-03T14:57:54.568Z,30.40
2023-04-03T15:00:24.230Z,30.50
2023-04-03T15:02:52.613Z,30.50
2023-04-03T15:05:21.009Z,30.40
2023-04-03T15:07:57.675Z,30.40
2023-04-03T15:10:31.394Z,30.40
2023-04-03T15:12:59.928Z,30.40
2023-04-03T15:15:31.520Z,30.40
2023-04-03T15:18:00.123Z,30.40
2023-04-03T15:20:31.873Z,30.40
2023-04-03T15:23:03.907Z,30.40
2023-04-03T15:25:32.884Z,30.40
2023-04-03T15:28:01.602Z,30.40
2023-04-03T15:30:29.643Z,30.40
2023-04-03T15:32:58.452Z,30.40
2023-04-03T15:35:26.637Z,30.30
2023-04-03T15:37:54.701Z,30.30
2023-04-03T15:40:22.761Z,30.30
2023-04-03T15:42:52.335Z,30.30
2023-04-03T15:45:22.368Z,30.30
2023-04-03T15:47:50.636Z,30.30
2023-04-03T15:50:18.796Z,30.30
2023-04-03T15:52:46.878Z,30.30
2023-04-03T15:55:15.126Z,30.30
2023-04-03T15:57:43.393Z,30.20
2023-04-03T16:00:12.988Z,30.20
2023-04-03T16:02:41.480Z,30.20
2023-04-03T16:05:11.374Z,30.10
2023-04-03T16:07:39.805Z,30.20
2023-04-03T16:10:09.750Z,30.10
2023-04-03T16:12:37.572Z,30.10
2023-04-03T16:15:06.937Z,30.10
2023-04-03T16:17:36.702Z,30.10
2023-04-03T16:20:06.647Z,30.10
2023-04-03T16:22:35.187Z,30.10
2023-04-03T16:25:03.586Z,30.00
2023-04-03T16:27:32.166Z,30.10
2023-04-03T16:30:00.401Z,30.00
2023-04-03T16:32:31.679Z,30.00
2023-04-03T16:37:33.637Z,30.00
2023-04-03T16:40:01.705Z,30.00
2023-04-03T16:42:29.752Z,29.90
2023-04-03T16:44:57.847Z,30.00
2023-04-03T16:47:25.917Z,29.90
2023-04-03T16:49:54.017Z,29.90
2023-04-03T16:52:22.094Z,29.90
2023-04-03T16:54:51.305Z,29.90
2023-04-03T16:57:19.587Z,29.90
2023-04-03T16:59:47.605Z,29.80
2023-04-03T17:02:15.825Z,29.80
2023-04-03T17:04:43.904Z,29.80
2023-04-03T17:07:11.903Z,29.80
2023-04-03T17:09:40.131Z,29.80
2023-04-03T17:12:08.116Z,29.80
2023-04-03T17:14:36.389Z,29.70
2023-04-03T17:17:05.598Z,29.70
2023-04-03T17:19:41.141Z,29.70
2023-04-03T17:22:11.217Z,29.70
2023-04-03T17:24:39.141Z,29.70
2023-04-03T17:27:07.185Z,29.70
2023-04-03T17:29:35.315Z,29.70
2023-04-03T17:32:03.796Z,29.70
2023-04-03T17:34:32.025Z,29.60
2023-04-03T17:37:00.115Z,29.60
2023-04-03T17:39:28.238Z,29.60
2023-04-03T17:41:56.306Z,29.60
2023-04-03T17:44:25.262Z,29.50
2023-04-03T17:46:53.275Z,29.50
2023-04-03T17:49:22.766Z,29.50
2023-04-03T17:51:50.988Z,29.50
2023-04-03T17:54:19.100Z,29.50
2023-04-03T17:56:50.243Z,29.40
2023-04-03T17:59:19.171Z,29.50
2023-04-03T18:01:48.253Z,29.40
2023-04-03T18:04:17.766Z,29.40
2023-04-03T18:06:48.983Z,29.40
2023-04-03T18:09:37.278Z,29.40
2023-04-03T18:12:07.877Z,29.40
2023-04-03T18:14:37.953Z,29.40
2023-04-03T18:17:06.133Z,29.30
2023-04-03T18:19:34.904Z,29.30
2023-04-03T18:22:09.762Z,29.30
2023-04-03T18:24:37.967Z,29.30
2023-04-03T18:27:13.464Z,29.30
2023-04-03T18:29:43.411Z,29.20
2023-04-03T18:32:12.642Z,29.20
2023-04-03T18:34:41.357Z,29.20
2023-04-03T18:37:10.278Z,29.10
2023-04-03T18:39:38.384Z,29.10
2023-04-03T18:42:13.403Z,29.00
2023-04-03T18:44:43.745Z,29.00
2023-04-03T18:47:12.279Z,28.90
2023-04-03T18:49:43.057Z,28.90
2023-04-03T18:52:13.452Z,28.80
2023-04-03T18:54:43.058Z,28.80
2023-04-03T18:57:11.098Z,28.80
2023-04-03T18:59:39.151Z,28.80
2023-04-03T19:02:08.813Z,28.80
2023-04-03T19:04:37.494Z,28.80
2023-04-03T19:07:07.591Z,28.80
2023-04-03T19:09:35.827Z,28.70
2023-04-03T19:12:03.867Z,28.80
2023-04-03T19:14:31.971Z,28.80
2023-04-03T19:17:00.196Z,28.80
2023-04-03T19:19:28.416Z,28.80
2023-04-03T19:21:56.512Z,28.80
2023-04-03T19:24:24.609Z,28.80
2023-04-03T19:26:52.650Z,28.80
2023-04-03T19:29:20.672Z,28.80
2023-04-03T19:31:48.722Z,28.80
2023-04-03T19:34:16.746Z,28.80
2023-04-03T19:36:45.878Z,28.70
2023-04-03T19:39:15.466Z,28.70
2023-04-03T19:41:44.267Z,28.70
2023-04-03T19:44:12.750Z,28.70
2023-04-03T19:46:41.326Z,28.70
2023-04-03T19:49:20.236Z,28.60
2023-04-03T19:51:49.179Z,28.60
2023-04-03T19:54:17.522Z,28.50
2023-04-03T19:56:45.834Z,28.40
2023-04-03T19:59:14.310Z,28.30
2023-04-03T20:01:42.720Z,28.30
2023-04-03T20:04:10.836Z,28.30
2023-04-03T20:06:38.979Z,28.20
2023-04-03T20:09:07.127Z,28.20
2023-04-03T20:11:36.495Z,28.20
2023-04-03T20:14:05.304Z,28.20
2023-04-03T20:16:34.227Z,28.10
2023-04-03T20:19:02.674Z,28.10
2023-04-03T20:21:32.518Z,28.10
2023-04-03T20:24:02.454Z,28.10
2023-04-03T20:26:31.864Z,28.10
2023-04-03T20:29:01.899Z,28.10
2023-04-03T20:31:30.007Z,28.10
2023-04-03T20:33:58.228Z,28.10
2023-04-03T20:36:28.679Z,28.10
2023-04-03T20:38:57.839Z,28.10
2023-04-03T20:41:26.296Z,28.10
2023-04-03T20:43:54.434Z,28.10
2023-04-03T20:46:26.675Z,28.10
2023-04-03T20:48:58.084Z,28.10
2023-04-03T20:51:28.413Z,28.10
2023-04-03T20:53:56.915Z,28.00
2023-04-03T20:56:25.086Z,28.00
2023-04-03T20:58:57.071Z,27.90
2023-04-03T21:01:25.568Z,27.90
2023-04-03T21:04:02.597Z,27.90
2023-04-03T21:07:07.503Z,27.90
2023-04-03T21:10:12.678Z,27.80
2023-04-03T21:13:17.708Z,27.70
2023-04-03T21:15:55.078Z,27.60
2023-04-03T21:18:42.287Z,27.60
2023-04-03T21:21:20.587Z,27.50
2023-04-03T21:23:49.293Z,27.50
2023-04-03T21:26:18.268Z,27.40
2023-04-03T21:28:46.804Z,27.40
2023-04-03T21:31:16.306Z,27.40
2023-04-03T21:33:44.428Z,27.40
2023-04-03T21:36:12.666Z,27.40
2023-04-03T21:38:40.994Z,27.30
2023-04-03T21:41:08.981Z,27.30
2023-04-03T21:43:40.439Z,27.20
2023-04-03T21:46:08.504Z,27.20
2023-04-03T21:48:37.001Z,27.20
2023-04-03T21:51:07.984Z,27.20
2023-04-03T21:53:36.743Z,27.20
2023-04-03T21:56:04.944Z,27.20
2023-04-03T21:58:33.908Z,27.20
2023-04-03T22:01:13.316Z,27.20
2023-04-03T22:03:42.775Z,27.30
2023-04-03T22:06:13.253Z,27.30
2023-04-03T22:08:41.599Z,27.30
2023-04-03T22:11:13.141Z,27.30
2023-04-03T22:13:42.314Z,27.30
2023-04-03T22:16:12.624Z,27.30
2023-04-03T22:18:40.874Z,27.40
2023-04-03T22:21:09.572Z,27.40
2023-04-03T22:23:38.906Z,27.40
2023-04-03T22:26:12.046Z,27.40
2023-04-03T22:28:45.683Z,27.30
2023-04-03T22:31:15.124Z,27.30
2023-04-03T22:33:44.703Z,27.20
2023-04-03T22:36:14.330Z,27.10
2023-04-03T22:38:47.088Z,27.10
2023-04-03T22:41:15.102Z,27.10
2023-04-03T22:43:43.561Z,27.00
2023-04-03T22:46:12.336Z,27.00
2023-04-03T22:48:48.757Z,27.00
2023-04-03T22:51:16.965Z,26.90
2023-04-03T22:53:44.965Z,26.90
2023-04-03T22:56:14.048Z,26.90
2023-04-03T22:58:42.451Z,26.90
2023-04-03T23:01:13.285Z,27.00
2023-04-03T23:03:42.754Z,27.00
2023-04-03T23:06:12.065Z,27.10
2023-04-03T23:08:41.122Z,27.10
2023-04-03T23:11:10.062Z,27.10
2023-04-03T23:13:38.597Z,27.20
2023-04-03T23:16:07.075Z,27.20
2023-04-03T23:18:35.267Z,27.20
2023-04-03T23:21:04.267Z,27.30
2023-04-03T23:23:33.152Z,27.30
2023-04-03T23:26:02.948Z,27.30
2023-04-03T23:28:31.366Z,27.40
2023-04-03T23:31:01.999Z,27.40
2023-04-03T23:33:31.566Z,27.40
2023-04-03T23:36:01.723Z,27.40
2023-04-03T23:38:29.811Z,27.40
2023-04-03T23:40:57.858Z,27.40
2023-04-03T23:43:26.025Z,27.40
2023-04-03T23:45:54.520Z,27.50
2023-04-03T23:48:22.632Z,27.50
2023-04-03T23:50:50.949Z,27.50
2023-04-03T23:53:20.252Z,27.60
2023-04-03T23:55:48.240Z,27.60
2023-04-03T23:58:16.354Z,27.60
